sensor_id;sensor_type;location;lat;lon;timestamp;pressure;altitude;pressure_sealevel;temperature;humidity
28306;BME280;7516;43.570;1.448;2022-10-17T00:02:03;99729.19;;;19.82;100.00
28306;BME280;7516;43.570;1.448;2022-10-17T00:04:31;99711.72;;;19.86;100.00
28306;BME280;7516;43.570;1.448;2022-10-17T00:06:59;99716.56;;;19.89;100.00
28306;BME280;7516;43.570;1.448;2022-10-17T00:09:26;99710.69;;;19.87;100.00
28306;BME280;7516;43.570;1.448;2022-10-17T00:11:54;99730.13;;;19.87;100.00
28306;BME280;7516;43.570;1.448;2022-10-17T00:14:21;99716.56;;;19.89;100.00
28306;BME280;7516;43.570;1.448;2022-10-17T00:16:49;99710.78;;;19.92;100.00
28306;BME280;7516;43.570;1.448;2022-10-17T00:19:16;99717.75;;;19.93;100.00
28306;BME280;7516;43.570;1.448;2022-10-17T00:21:45;99713.44;;;19.92;100.00
28306;BME280;7516;43.570;1.448;2022-10-17T00:24:14;99726.97;;;19.90;100.00
28306;BME280;7516;43.570;1.448;2022-10-17T00:26:42;99722.69;;;19.89;100.00
28306;BME280;7516;43.570;1.448;2022-10-17T00:29:09;99732.53;;;19.89;100.00
28306;BME280;7516;43.570;1.448;2022-10-17T00:31:37;99728.03;;;19.89;100.00
28306;BME280;7516;43.570;1.448;2022-10-17T00:34:04;99732.31;;;19.90;100.00
28306;BME280;7516;43.570;1.448;2022-10-17T00:36:32;99733.94;;;19.91;100.00
28306;BME280;7516;43.570;1.448;2022-10-17T00:39:01;99733.94;;;19.91;100.00
28306;BME280;7516;43.570;1.448;2022-10-17T00:41:32;99724.31;;;19.90;100.00
28306;BME280;7516;43.570;1.448;2022-10-17T00:44:02;99727.34;;;19.94;100.00
28306;BME280;7516;43.570;1.448;2022-10-17T00:46:31;99727.66;;;19.98;100.00
28306;BME280;7516;43.570;1.448;2022-10-17T00:49:02;99737.03;;;20.00;100.00
28306;BME280;7516;43.570;1.448;2022-10-17T00:51:35;99743.06;;;19.96;100.00
28306;BME280;7516;43.570;1.448;2022-10-17T00:54:05;99761.94;;;19.94;100.00
28306;BME280;7516;43.570;1.448;2022-10-17T00:56:34;99769.31;;;19.92;100.00
28306;BME280;7516;43.570;1.448;2022-10-17T00:59:02;99761.34;;;19.92;100.00
28306;BME280;7516;43.570;1.448;2022-10-17T01:01:29;99762.84;;;19.88;100.00
28306;BME280;7516;43.570;1.448;2022-10-17T01:03:57;99768.63;;;19.85;100.00
28306;BME280;7516;43.570;1.448;2022-10-17T01:06:25;99755.44;;;19.90;100.00
28306;BME280;7516;43.570;1.448;2022-10-17T01:08:52;99757.63;;;19.93;100.00
28306;BME280;7516;43.570;1.448;2022-10-17T01:11:31;99751.28;;;19.94;100.00
28306;BME280;7516;43.570;1.448;2022-10-17T01:14:03;99743.88;;;19.96;100.00
28306;BME280;7516;43.570;1.448;2022-10-17T01:16:38;99746.28;;;19.98;100.00
28306;BME280;7516;43.570;1.448;2022-10-17T01:19:33;99749.75;;;19.98;100.00
28306;BME280;7516;43.570;1.448;2022-10-17T01:22:09;99750.81;;;19.97;100.00
28306;BME280;7516;43.570;1.448;2022-10-17T01:25:16;99752.41;;;19.98;100.00
28306;BME280;7516;43.570;1.448;2022-10-17T01:28:11;99755.22;;;20.03;100.00
28306;BME280;7516;43.570;1.448;2022-10-17T01:30:53;99752.19;;;20.00;100.00
28306;BME280;7516;43.570;1.448;2022-10-17T01:33:32;99754.97;;;20.05;100.00
28306;BME280;7516;43.570;1.448;2022-10-17T01:36:09;99758.47;;;20.05;100.00
28306;BME280;7516;43.570;1.448;2022-10-17T01:38:42;99761.91;;;20.06;100.00
28306;BME280;7516;43.570;1.448;2022-10-17T01:41:16;99767.22;;;20.06;100.00
28306;BME280;7516;43.570;1.448;2022-10-17T01:43:50;99765.84;;;20.03;100.00
28306;BME280;7516;43.570;1.448;2022-10-17T01:46:24;99768.28;;;20.05;100.00
28306;BME280;7516;43.570;1.448;2022-10-17T01:48:53;99761.34;;;20.04;100.00
28306;BME280;7516;43.570;1.448;2022-10-17T01:51:27;99758.47;;;20.05;100.00
28306;BME280;7516;43.570;1.448;2022-10-17T01:53:59;99769.66;;;20.07;100.00
28306;BME280;7516;43.570;1.448;2022-10-17T01:56:30;99764.34;;;20.07;100.00
28306;BME280;7516;43.570;1.448;2022-10-17T01:59:01;99757.97;;;20.08;100.00
28306;BME280;7516;43.570;1.448;2022-10-17T02:01:34;99755.31;;;20.08;100.00
28306;BME280;7516;43.570;1.448;2022-10-17T02:04:04;99752.66;;;20.08;100.00
28306;BME280;7516;43.570;1.448;2022-10-17T02:06:34;99741.56;;;20.11;100.00
28306;BME280;7516;43.570;1.448;2022-10-17T02:09:19;99750.13;;;20.13;100.00
28306;BME280;7516;43.570;1.448;2022-10-17T02:11:59;99741.06;;;20.14;100.00
28306;BME280;7516;43.570;1.448;2022-10-17T02:14:36;99737.94;;;20.17;100.00
28306;BME280;7516;43.570;1.448;2022-10-17T02:17:13;99736.91;;;20.18;100.00
28306;BME280;7516;43.570;1.448;2022-10-17T02:19:54;99733.44;;;20.18;100.00
28306;BME280;7516;43.570;1.448;2022-10-17T02:22:33;99739.34;;;20.20;100.00
28306;BME280;7516;43.570;1.448;2022-10-17T02:25:08;99735.88;;;20.19;100.00
28306;BME280;7516;43.570;1.448;2022-10-17T02:27:44;99732.63;;;20.17;100.00
28306;BME280;7516;43.570;1.448;2022-10-17T02:30:19;99727.06;;;20.19;100.00
28306;BME280;7516;43.570;1.448;2022-10-17T02:32:55;99723.03;;;20.16;100.00
28306;BME280;7516;43.570;1.448;2022-10-17T02:35:28;99732.63;;;20.17;100.00
28306;BME280;7516;43.570;1.448;2022-10-17T02:37:56;99708.66;;;20.17;100.00
28306;BME280;7516;43.570;1.448;2022-10-17T02:40:27;99708.44;;;20.19;100.00
28306;BME280;7516;43.570;1.448;2022-10-17T02:42:56;99691.09;;;20.16;100.00
28306;BME280;7516;43.570;1.448;2022-10-17T02:45:27;99711.91;;;20.19;100.00
28306;BME280;7516;43.570;1.448;2022-10-17T02:47:59;99707.06;;;20.16;100.00
28306;BME280;7516;43.570;1.448;2022-10-17T02:50:39;99720.34;;;20.16;100.00
28306;BME280;7516;43.570;1.448;2022-10-17T02:53:11;99734.47;;;20.17;100.00
28306;BME280;7516;43.570;1.448;2022-10-17T02:55:44;99746.16;;;20.16;100.00
28306;BME280;7516;43.570;1.448;2022-10-17T02:58:19;99760.88;;;20.18;100.00
28306;BME280;7516;43.570;1.448;2022-10-17T03:00:48;99748.81;;;20.16;100.00
28306;BME280;7516;43.570;1.448;2022-10-17T03:03:23;99742.22;;;20.18;100.00
28306;BME280;7516;43.570;1.448;2022-10-17T03:05:51;99747.56;;;20.18;100.00
28306;BME280;7516;43.570;1.448;2022-10-17T03:08:19;99746.06;;;20.22;100.00
28306;BME280;7516;43.570;1.448;2022-10-17T03:10:47;99738.53;;;20.19;100.00
28306;BME280;7516;43.570;1.448;2022-10-17T03:13:15;99737.94;;;20.17;100.00
28306;BME280;7516;43.570;1.448;2022-10-17T03:15:42;99743.28;;;20.17;100.00
28306;BME280;7516;43.570;1.448;2022-10-17T03:18:10;99733.66;;;20.16;100.00
28306;BME280;7516;43.570;1.448;2022-10-17T03:20:39;99740.84;;;20.16;100.00
28306;BME280;7516;43.570;1.448;2022-10-17T03:23:06;99732.84;;;20.16;100.00
28306;BME280;7516;43.570;1.448;2022-10-17T03:25:33;99740.28;;;20.14;100.00
28306;BME280;7516;43.570;1.448;2022-10-17T03:28:01;99741.06;;;20.14;100.00
28306;BME280;7516;43.570;1.448;2022-10-17T03:30:30;99742.13;;;20.13;99.59
28306;BME280;7516;43.570;1.448;2022-10-17T03:32:58;99740.03;;;20.15;100.00
28306;BME280;7516;43.570;1.448;2022-10-17T03:35:26;99736.56;;;20.15;100.00
28306;BME280;7516;43.570;1.448;2022-10-17T03:37:56;99749.88;;;20.15;99.79
28306;BME280;7516;43.570;1.448;2022-10-17T03:40:23;99742.69;;;20.15;99.83
28306;BME280;7516;43.570;1.448;2022-10-17T03:42:51;99741.06;;;20.14;98.60
28306;BME280;7516;43.570;1.448;2022-10-17T03:45:18;99750.56;;;20.10;99.44
28306;BME280;7516;43.570;1.448;2022-10-17T03:47:46;99755.09;;;20.10;99.45
28306;BME280;7516;43.570;1.448;2022-10-17T03:50:13;99754.28;;;20.09;98.52
28306;BME280;7516;43.570;1.448;2022-10-17T03:52:41;99758.78;;;20.09;99.39
28306;BME280;7516;43.570;1.448;2022-10-17T03:55:10;99764.34;;;20.07;99.22
28306;BME280;7516;43.570;1.448;2022-10-17T03:57:37;99754.19;;;20.04;99.73
28306;BME280;7516;43.570;1.448;2022-10-17T04:00:06;99764.22;;;20.02;99.72
28306;BME280;7516;43.570;1.448;2022-10-17T04:02:33;99769.78;;;20.01;99.27
28306;BME280;7516;43.570;1.448;2022-10-17T04:05:01;99777.41;;;19.97;99.48
28306;BME280;7516;43.570;1.448;2022-10-17T04:07:28;99765.16;;;19.96;100.00
28306;BME280;7516;43.570;1.448;2022-10-17T04:09:56;99787.00;;;19.98;100.00
28306;BME280;7516;43.570;1.448;2022-10-17T04:12:25;99777.41;;;19.97;99.95
28306;BME280;7516;43.570;1.448;2022-10-17T04:14:52;99779.50;;;19.95;100.00
28306;BME280;7516;43.570;1.448;2022-10-17T04:17:19;99784.84;;;19.95;100.00
28306;BME280;7516;43.570;1.448;2022-10-17T04:19:48;99777.88;;;19.94;100.00
28306;BME280;7516;43.570;1.448;2022-10-17T04:22:16;99783.66;;;19.91;100.00
28306;BME280;7516;43.570;1.448;2022-10-17T04:24:43;99778.00;;;19.87;100.00
28306;BME280;7516;43.570;1.448;2022-10-17T04:27:11;99777.19;;;19.87;100.00
28306;BME280;7516;43.570;1.448;2022-10-17T04:29:40;99787.03;;;19.86;100.00
28306;BME280;7516;43.570;1.448;2022-10-17T04:32:09;99785.72;;;19.89;100.00
28306;BME280;7516;43.570;1.448;2022-10-17T04:34:36;99781.72;;;19.86;100.00
28306;BME280;7516;43.570;1.448;2022-10-17T04:37:04;99793.16;;;19.87;100.00
28306;BME280;7516;43.570;1.448;2022-10-17T04:39:31;99793.97;;;19.87;100.00
28306;BME280;7516;43.570;1.448;2022-10-17T04:41:58;99797.78;;;19.91;100.00
28306;BME280;7516;43.570;1.448;2022-10-17T04:44:26;99792.69;;;19.90;100.00
28306;BME280;7516;43.570;1.448;2022-10-17T04:46:57;99795.94;;;19.92;100.00
28306;BME280;7516;43.570;1.448;2022-10-17T04:49:24;99785.50;;;19.90;100.00
28306;BME280;7516;43.570;1.448;2022-10-17T04:51:52;99788.97;;;19.91;100.00
28306;BME280;7516;43.570;1.448;2022-10-17T04:54:19;99796.75;;;19.92;100.00
28306;BME280;7516;43.570;1.448;2022-10-17T04:56:47;99804.50;;;19.94;100.00
28306;BME280;7516;43.570;1.448;2022-10-17T04:59:14;99804.00;;;19.97;100.00
28306;BME280;7516;43.570;1.448;2022-10-17T05:01:42;99805.63;;;19.98;100.00
28306;BME280;7516;43.570;1.448;2022-10-17T05:04:11;99813.06;;;19.96;100.00
28306;BME280;7516;43.570;1.448;2022-10-17T05:06:38;99810.84;;;19.93;100.00
28306;BME280;7516;43.570;1.448;2022-10-17T05:09:05;99824.47;;;19.97;100.00
28306;BME280;7516;43.570;1.448;2022-10-17T05:11:33;99821.38;;;20.00;100.00
28306;BME280;7516;43.570;1.448;2022-10-17T05:14:01;99834.69;;;20.00;100.00
28306;BME280;7516;43.570;1.448;2022-10-17T05:16:29;99836.53;;;19.99;100.00
28306;BME280;7516;43.570;1.448;2022-10-17T05:18:57;99844.28;;;20.01;100.00
28306;BME280;7516;43.570;1.448;2022-10-17T05:21:27;99837.56;;;19.98;99.99
28306;BME280;7516;43.570;1.448;2022-10-17T05:23:56;99849.03;;;19.99;100.00
28306;BME280;7516;43.570;1.448;2022-10-17T05:26:24;99863.34;;;19.98;100.00
28306;BME280;7516;43.570;1.448;2022-10-17T05:28:52;99869.03;;;20.01;100.00
28306;BME280;7516;43.570;1.448;2022-10-17T05:31:19;99863.13;;;19.99;100.00
28306;BME280;7516;43.570;1.448;2022-10-17T05:33:47;99865.78;;;19.99;100.00
28306;BME280;7516;43.570;1.448;2022-10-17T05:36:14;99879.69;;;20.01;100.00
28306;BME280;7516;43.570;1.448;2022-10-17T05:38:47;99885.38;;;20.05;100.00
28306;BME280;7516;43.570;1.448;2022-10-17T05:41:14;99877.63;;;20.03;100.00
28306;BME280;7516;43.570;1.448;2022-10-17T05:43:42;99895.22;;;20.04;100.00
28306;BME280;7516;43.570;1.448;2022-10-17T05:46:09;99895.22;;;20.04;100.00
28306;BME280;7516;43.570;1.448;2022-10-17T05:48:37;99883.38;;;20.00;100.00
28306;BME280;7516;43.570;1.448;2022-10-17T05:51:06;99893.44;;;19.98;100.00
28306;BME280;7516;43.570;1.448;2022-10-17T05:53:36;99891.81;;;19.97;100.00
28306;BME280;7516;43.570;1.448;2022-10-17T05:56:08;99900.59;;;19.98;100.00
28306;BME280;7516;43.570;1.448;2022-10-17T05:58:38;99898.19;;;19.96;100.00
28306;BME280;7516;43.570;1.448;2022-10-17T06:01:06;99904.56;;;19.95;100.00
28306;BME280;7516;43.570;1.448;2022-10-17T06:03:34;99900.28;;;19.94;100.00
28306;BME280;7516;43.570;1.448;2022-10-17T06:06:05;99908.25;;;19.94;100.00
28306;BME280;7516;43.570;1.448;2022-10-17T06:08:34;99913.78;;;19.92;100.00
28306;BME280;7516;43.570;1.448;2022-10-17T06:11:01;99902.34;;;19.92;100.00
28306;BME280;7516;43.570;1.448;2022-10-17T06:13:30;99897.25;;;19.90;100.00
28306;BME280;7516;43.570;1.448;2022-10-17T06:15:58;99917.28;;;19.93;100.00
28306;BME280;7516;43.570;1.448;2022-10-17T06:18:25;99906.03;;;19.91;100.00
28306;BME280;7516;43.570;1.448;2022-10-17T06:20:53;99906.03;;;19.91;100.00
28306;BME280;7516;43.570;1.448;2022-10-17T06:23:20;99908.09;;;19.89;100.00
28306;BME280;7516;43.570;1.448;2022-10-17T06:25:48;99908.59;;;19.86;100.00
28306;BME280;7516;43.570;1.448;2022-10-17T06:28:15;99905.91;;;19.86;100.00
28306;BME280;7516;43.570;1.448;2022-10-17T06:30:44;99909.63;;;19.85;100.00
28306;BME280;7516;43.570;1.448;2022-10-17T06:33:11;99922.91;;;19.85;100.00
28306;BME280;7516;43.570;1.448;2022-10-17T06:35:39;99926.16;;;19.87;100.00
28306;BME280;7516;43.570;1.448;2022-10-17T06:38:06;99917.59;;;19.85;100.00
28306;BME280;7516;43.570;1.448;2022-10-17T06:40:34;99920.03;;;19.86;100.00
28306;BME280;7516;43.570;1.448;2022-10-17T06:43:01;99913.91;;;19.86;100.00
28306;BME280;7516;43.570;1.448;2022-10-17T06:45:29;99921.28;;;19.84;100.00
28306;BME280;7516;43.570;1.448;2022-10-17T06:47:58;99920.69;;;19.82;100.00
28306;BME280;7516;43.570;1.448;2022-10-17T06:50:25;99915.97;;;19.84;100.00
28306;BME280;7516;43.570;1.448;2022-10-17T06:52:53;99918.75;;;19.89;100.00
28306;BME280;7516;43.570;1.448;2022-10-17T06:55:20;99923.19;;;19.95;100.00
28306;BME280;7516;43.570;1.448;2022-10-17T06:57:48;99916.56;;;19.98;100.00
28306;BME280;7516;43.570;1.448;2022-10-17T07:00:17;99921.22;;;20.02;100.00
28306;BME280;7516;43.570;1.448;2022-10-17T07:02:44;99928.28;;;20.08;100.00
28306;BME280;7516;43.570;1.448;2022-10-17T07:05:13;99928.44;;;20.13;100.00
28306;BME280;7516;43.570;1.448;2022-10-17T07:07:41;99938.75;;;20.21;100.00
28306;BME280;7516;43.570;1.448;2022-10-17T07:10:08;99938.63;;;20.28;100.00
28306;BME280;7516;43.570;1.448;2022-10-17T07:12:36;99946.97;;;20.32;100.00
28306;BME280;7516;43.570;1.448;2022-10-17T07:15:04;99949.78;;;20.37;100.00
28306;BME280;7516;43.570;1.448;2022-10-17T07:17:32;99946.66;;;20.40;100.00
28306;BME280;7516;43.570;1.448;2022-10-17T07:19:59;99970.75;;;20.45;99.65
28306;BME280;7516;43.570;1.448;2022-10-17T07:22:28;99975.63;;;20.48;100.00
28306;BME280;7516;43.570;1.448;2022-10-17T07:24:55;99991.69;;;20.53;99.97
28306;BME280;7516;43.570;1.448;2022-10-17T07:27:23;99988.09;;;20.59;99.18
28306;BME280;7516;43.570;1.448;2022-10-17T07:29:50;99997.38;;;20.68;99.40
28306;BME280;7516;43.570;1.448;2022-10-17T07:32:18;99995.44;;;20.75;98.36
28306;BME280;7516;43.570;1.448;2022-10-17T07:34:45;99999.25;;;20.79;98.54
28306;BME280;7516;43.570;1.448;2022-10-17T07:37:13;99991.72;;;20.88;98.07
28306;BME280;7516;43.570;1.448;2022-10-17T07:39:42;99994.75;;;20.91;97.12
28306;BME280;7516;43.570;1.448;2022-10-17T07:42:09;100003.88;;;20.95;96.88
28306;BME280;7516;43.570;1.448;2022-10-17T07:44:37;100002.38;;;20.99;97.05
28306;BME280;7516;43.570;1.448;2022-10-17T07:47:05;100005.16;;;21.04;96.48
28306;BME280;7516;43.570;1.448;2022-10-17T07:49:32;99996.69;;;21.08;96.17
28306;BME280;7516;43.570;1.448;2022-10-17T07:52:00;100001.31;;;21.12;95.90
28306;BME280;7516;43.570;1.448;2022-10-17T07:54:27;100008.63;;;21.17;95.61
28306;BME280;7516;43.570;1.448;2022-10-17T07:56:56;100016.16;;;21.20;95.75
28306;BME280;7516;43.570;1.448;2022-10-17T07:59:24;100009.34;;;21.24;94.73
28306;BME280;7516;43.570;1.448;2022-10-17T08:01:53;100017.34;;;21.24;95.15
28306;BME280;7516;43.570;1.448;2022-10-17T08:04:21;100006.66;;;21.24;95.00
28306;BME280;7516;43.570;1.448;2022-10-17T08:06:49;100013.03;;;21.23;95.09
28306;BME280;7516;43.570;1.448;2022-10-17T08:09:16;100007.72;;;21.23;94.54
28306;BME280;7516;43.570;1.448;2022-10-17T08:11:44;100013.63;;;21.25;94.64
28306;BME280;7516;43.570;1.448;2022-10-17T08:14:13;100000.28;;;21.25;94.38
28306;BME280;7516;43.570;1.448;2022-10-17T08:16:41;100005.16;;;21.28;94.61
28306;BME280;7516;43.570;1.448;2022-10-17T08:19:09;100016.38;;;21.30;94.11
28306;BME280;7516;43.570;1.448;2022-10-17T08:21:38;100022.31;;;21.32;93.95
28306;BME280;7516;43.570;1.448;2022-10-17T08:24:06;100043.19;;;21.35;94.04
28306;BME280;7516;43.570;1.448;2022-10-17T08:26:34;100039.22;;;21.37;93.84
28306;BME280;7516;43.570;1.448;2022-10-17T08:29:01;100044.44;;;21.44;93.93
28306;BME280;7516;43.570;1.448;2022-10-17T08:31:30;100043.97;;;21.47;93.19
28306;BME280;7516;43.570;1.448;2022-10-17T08:33:57;100047.78;;;21.51;93.27
28306;BME280;7516;43.570;1.448;2022-10-17T08:36:25;100047.31;;;21.54;92.53
28306;BME280;7516;43.570;1.448;2022-10-17T08:38:54;100042.91;;;21.60;92.31
28306;BME280;7516;43.570;1.448;2022-10-17T08:41:35;100037.09;;;21.63;91.76
28306;BME280;7516;43.570;1.448;2022-10-17T08:44:16;100047.88;;;21.68;91.81
28306;BME280;7516;43.570;1.448;2022-10-17T08:46:50;100046.34;;;21.72;91.70
28306;BME280;7516;43.570;1.448;2022-10-17T08:49:23;100029.03;;;21.74;90.92
28306;BME280;7516;43.570;1.448;2022-10-17T08:52:00;100031.47;;;21.76;91.25
28306;BME280;7516;43.570;1.448;2022-10-17T08:54:37;100048.31;;;21.76;90.47
28306;BME280;7516;43.570;1.448;2022-10-17T08:57:10;100060.59;;;21.77;90.43
28306;BME280;7516;43.570;1.448;2022-10-17T08:59:37;100062.47;;;21.77;90.41
28306;BME280;7516;43.570;1.448;2022-10-17T09:05:14;100094.25;;;21.78;90.11
28306;BME280;7516;43.570;1.448;2022-10-17T09:07:54;100101.53;;;21.83;89.93
28306;BME280;7516;43.570;1.448;2022-10-17T09:10:32;100090.41;;;21.86;90.03
28306;BME280;7516;43.570;1.448;2022-10-17T09:13:10;100089.66;;;21.91;89.48
28306;BME280;7516;43.570;1.448;2022-10-17T09:15:56;100094.53;;;21.94;89.35
28306;BME280;7516;43.570;1.448;2022-10-17T09:18:31;100112.78;;;21.97;89.25
28306;BME280;7516;43.570;1.448;2022-10-17T09:21:04;100118.47;;;22.00;89.72
28306;BME280;7516;43.570;1.448;2022-10-17T09:23:39;100121.47;;;22.04;88.94
28306;BME280;7516;43.570;1.448;2022-10-17T09:26:10;100127.94;;;22.08;88.33
28306;BME280;7516;43.570;1.448;2022-10-17T09:28:40;100134.69;;;22.10;88.87
28306;BME280;7516;43.570;1.448;2022-10-17T09:31:13;100150.25;;;22.13;88.19
28306;BME280;7516;43.570;1.448;2022-10-17T09:33:46;100149.53;;;22.18;87.40
28306;BME280;7516;43.570;1.448;2022-10-17T09:36:16;100161.38;;;22.22;87.99
28306;BME280;7516;43.570;1.448;2022-10-17T09:38:48;100156.59;;;22.24;87.32
28306;BME280;7516;43.570;1.448;2022-10-17T09:41:19;100163.31;;;22.27;87.59
28306;BME280;7516;43.570;1.448;2022-10-17T09:43:47;100167.03;;;22.26;86.52
28306;BME280;7516;43.570;1.448;2022-10-17T09:46:23;100155.28;;;22.27;86.94
28306;BME280;7516;43.570;1.448;2022-10-17T09:48:57;100163.06;;;22.28;86.44
28306;BME280;7516;43.570;1.448;2022-10-17T09:51:26;100173.75;;;22.28;86.36
28306;BME280;7516;43.570;1.448;2022-10-17T09:53:58;100182.00;;;22.27;86.59
28306;BME280;7516;43.570;1.448;2022-10-17T09:56:27;100188.97;;;22.28;87.49
28306;BME280;7516;43.570;1.448;2022-10-17T09:58:56;100179.09;;;22.28;86.69
28306;BME280;7516;43.570;1.448;2022-10-17T10:01:26;100185.03;;;22.30;87.10
28306;BME280;7516;43.570;1.448;2022-10-17T10:04:12;100188.50;;;22.31;87.27
28306;BME280;7516;43.570;1.448;2022-10-17T10:09:30;100198.72;;;22.34;87.30
28306;BME280;7516;43.570;1.448;2022-10-17T10:12:02;100213.13;;;22.33;87.53
28306;BME280;7516;43.570;1.448;2022-10-17T10:14:33;100195.72;;;22.30;87.18
28306;BME280;7516;43.570;1.448;2022-10-17T10:17:02;100217.06;;;22.30;87.32
28306;BME280;7516;43.570;1.448;2022-10-17T10:19:33;100218.13;;;22.29;87.94
28306;BME280;7516;43.570;1.448;2022-10-17T10:22:02;100232.53;;;22.28;87.36
28306;BME280;7516;43.570;1.448;2022-10-17T10:24:30;100223.09;;;22.26;87.54
28306;BME280;7516;43.570;1.448;2022-10-17T10:27:00;100239.41;;;22.24;87.66
28306;BME280;7516;43.570;1.448;2022-10-17T10:29:32;100238.81;;;22.22;87.94
28306;BME280;7516;43.570;1.448;2022-10-17T10:32:08;100239.28;;;22.19;88.25
28306;BME280;7516;43.570;1.448;2022-10-17T10:34:46;100235.19;;;22.17;88.54
28306;BME280;7516;43.570;1.448;2022-10-17T10:37:17;100238.34;;;22.13;88.08
28306;BME280;7516;43.570;1.448;2022-10-17T10:39:47;100231.63;;;22.11;88.78
28306;BME280;7516;43.570;1.448;2022-10-17T10:42:25;100234.75;;;22.08;89.02
28306;BME280;7516;43.570;1.448;2022-10-17T10:44:56;100258.44;;;22.04;89.26
28306;BME280;7516;43.570;1.448;2022-10-17T10:47:26;100265.88;;;22.02;89.00
28306;BME280;7516;43.570;1.448;2022-10-17T10:50:21;100262.84;;;21.99;89.65
28306;BME280;7516;43.570;1.448;2022-10-17T10:52:55;100294.88;;;21.99;89.26
28306;BME280;7516;43.570;1.448;2022-10-17T10:55:28;100321.56;;;21.99;90.24
28306;BME280;7516;43.570;1.448;2022-10-17T10:58:00;100325.88;;;22.00;89.96
28306;BME280;7516;43.570;1.448;2022-10-17T11:00:31;100321.72;;;22.04;90.34
28306;BME280;7516;43.570;1.448;2022-10-17T11:03:08;100322.31;;;22.06;90.39
28306;BME280;7516;43.570;1.448;2022-10-17T11:05:42;100326.94;;;22.10;90.09
28306;BME280;7516;43.570;1.448;2022-10-17T11:08:17;100326.81;;;22.17;89.38
28306;BME280;7516;43.570;1.448;2022-10-17T11:10:58;100311.16;;;22.21;89.49
28306;BME280;7516;43.570;1.448;2022-10-17T11:13:30;100327.63;;;22.29;90.23
28306;BME280;7516;43.570;1.448;2022-10-17T11:16:03;100317.75;;;22.41;89.38
28306;BME280;7516;43.570;1.448;2022-10-17T11:18:38;100310.50;;;22.53;88.89
28306;BME280;7516;43.570;1.448;2022-10-17T11:21:15;100309.59;;;22.60;88.76
28306;BME280;7516;43.570;1.448;2022-10-17T11:23:47;100304.56;;;22.63;88.39
28306;BME280;7516;43.570;1.448;2022-10-17T11:26:22;100290.50;;;22.68;88.52
28306;BME280;7516;43.570;1.448;2022-10-17T11:28:52;100295.59;;;22.69;88.41
28306;BME280;7516;43.570;1.448;2022-10-17T11:31:22;100293.75;;;22.70;88.65
28306;BME280;7516;43.570;1.448;2022-10-17T11:33:55;100276.09;;;22.69;88.50
28306;BME280;7516;43.570;1.448;2022-10-17T11:36:27;100259.25;;;22.68;87.48
28306;BME280;7516;43.570;1.448;2022-10-17T11:38:59;100256.91;;;22.72;88.48
28306;BME280;7516;43.570;1.448;2022-10-17T11:41:32;100246.28;;;22.88;88.04
28306;BME280;7516;43.570;1.448;2022-10-17T11:44:07;100242.47;;;23.13;87.58
28306;BME280;7516;43.570;1.448;2022-10-17T11:46:39;100227.72;;;23.27;87.01
28306;BME280;7516;43.570;1.448;2022-10-17T11:49:14;100221.91;;;23.47;84.85
28306;BME280;7516;43.570;1.448;2022-10-17T11:51:46;100231.72;;;23.58;84.03
28306;BME280;7516;43.570;1.448;2022-10-17T11:54:17;100233.91;;;23.61;82.90
28306;BME280;7516;43.570;1.448;2022-10-17T11:56:52;100233.97;;;23.66;83.24
28306;BME280;7516;43.570;1.448;2022-10-17T12:02:31;100227.03;;;23.65;83.02
28306;BME280;7516;43.570;1.448;2022-10-17T12:05:08;100218.41;;;23.63;82.89
28306;BME280;7516;43.570;1.448;2022-10-17T12:07:44;100225.47;;;23.69;84.04
28306;BME280;7516;43.570;1.448;2022-10-17T12:10:23;100224.34;;;23.65;82.49
28306;BME280;7516;43.570;1.448;2022-10-17T12:12:54;100213.25;;;23.56;82.98
28306;BME280;7516;43.570;1.448;2022-10-17T12:15:30;100204.69;;;23.43;82.96
28306;BME280;7516;43.570;1.448;2022-10-17T12:18:00;100205.09;;;23.35;83.43
28306;BME280;7516;43.570;1.448;2022-10-17T12:20:35;100197.56;;;23.32;83.63
28306;BME280;7516;43.570;1.448;2022-10-17T12:23:22;100187.94;;;23.31;83.65
28306;BME280;7516;43.570;1.448;2022-10-17T12:25:53;100180.44;;;23.33;82.82
28306;BME280;7516;43.570;1.448;2022-10-17T12:28:27;100171.28;;;23.45;83.29
28306;BME280;7516;43.570;1.448;2022-10-17T12:30:59;100177.63;;;23.56;82.31
28306;BME280;7516;43.570;1.448;2022-10-17T12:33:32;100162.28;;;23.68;81.75
28306;BME280;7516;43.570;1.448;2022-10-17T12:42:31;100165.03;;;23.73;79.19
28306;BME280;7516;43.570;1.448;2022-10-17T12:44:59;100171.50;;;23.77;79.60
28306;BME280;7516;43.570;1.448;2022-10-17T12:47:35;100166.78;;;23.84;80.08
28306;BME280;7516;43.570;1.448;2022-10-17T12:50:10;100160.44;;;23.90;79.54
28306;BME280;7516;43.570;1.448;2022-10-17T12:53:03;100172.78;;;23.91;79.21
28306;BME280;7516;43.570;1.448;2022-10-17T12:55:32;100161.56;;;23.94;78.90
28306;BME280;7516;43.570;1.448;2022-10-17T12:58:03;100149.88;;;24.00;78.45
28306;BME280;7516;43.570;1.448;2022-10-17T13:00:35;100149.66;;;24.07;78.11
28306;BME280;7516;43.570;1.448;2022-10-17T13:03:09;100153.97;;;24.08;77.57
28306;BME280;7516;43.570;1.448;2022-10-17T13:05:40;100145.56;;;23.99;77.09
28306;BME280;7516;43.570;1.448;2022-10-17T13:08:15;100157.25;;;23.93;76.98
28306;BME280;7516;43.570;1.448;2022-10-17T13:10:47;100163.84;;;23.86;77.56
28306;BME280;7516;43.570;1.448;2022-10-17T13:13:19;100164.84;;;23.80;78.25
28306;BME280;7516;43.570;1.448;2022-10-17T13:15:48;100167.19;;;23.76;77.64
28306;BME280;7516;43.570;1.448;2022-10-17T13:18:20;100160.72;;;23.72;78.73
28306;BME280;7516;43.570;1.448;2022-10-17T13:20:56;100156.44;;;23.71;78.05
28306;BME280;7516;43.570;1.448;2022-10-17T13:23:28;100161.47;;;23.68;77.76
28306;BME280;7516;43.570;1.448;2022-10-17T13:26:12;100167.47;;;23.75;77.86
28306;BME280;7516;43.570;1.448;2022-10-17T13:28:41;100174.75;;;23.79;77.68
28306;BME280;7516;43.570;1.448;2022-10-17T13:31:27;100163.03;;;23.85;76.86
28306;BME280;7516;43.570;1.448;2022-10-17T13:33:57;100174.38;;;23.92;76.05
28306;BME280;7516;43.570;1.448;2022-10-17T13:36:25;100161.13;;;24.02;74.82